sensor_id;sensor_type;location;lat;lon;timestamp;pressure;altitude;pressure_sealevel;temperature;humidity
13068;BME280;6600;51.362;6.686;2022-09-29T00:02:09;99582.28;;;7.29;100.00
13068;BME280;6600;51.362;6.686;2022-09-29T00:04:34;99579.63;;;7.29;100.00
13068;BME280;6600;51.362;6.686;2022-09-29T00:06:59;99580.44;;;7.30;100.00
13068;BME280;6600;51.362;6.686;2022-09-29T00:09:25;99583.69;;;7.32;100.00
13068;BME280;6600;51.362;6.686;2022-09-29T00:11:53;99587.78;;;7.34;100.00
13068;BME280;6600;51.362;6.686;2022-09-29T00:14:20;99582.44;;;7.34;100.00
13068;BME280;6600;51.362;6.686;2022-09-29T00:16:46;99584.50;;;7.32;100.00
13068;BME280;6600;51.362;6.686;2022-09-29T00:19:11;99582.06;;;7.31;100.00
13068;BME280;6600;51.362;6.686;2022-09-29T00:21:36;99581.25;;;7.30;100.00
13068;BME280;6600;51.362;6.686;2022-09-29T00:24:02;99582.50;;;7.28;100.00
13068;BME280;6600;51.362;6.686;2022-09-29T00:26:27;99584.50;;;7.32;100.00
13068;BME280;6600;51.362;6.686;2022-09-29T00:28:54;99586.13;;;7.33;100.00
13068;BME280;6600;51.362;6.686;2022-09-29T00:31:21;99584.50;;;7.32;100.00
13068;BME280;6600;51.362;6.686;2022-09-29T00:33:47;99583.69;;;7.32;100.00
13068;BME280;6600;51.362;6.686;2022-09-29T00:36:14;99578.22;;;7.27;100.00
13068;BME280;6600;51.362;6.686;2022-09-29T00:38:41;99583.75;;;7.25;100.00
13068;BME280;6600;51.362;6.686;2022-09-29T00:41:07;99576.78;;;7.24;100.00
13068;BME280;6600;51.362;6.686;2022-09-29T00:48:49;99584.19;;;7.22;100.00
13068;BME280;6600;51.362;6.686;2022-09-29T00:51:16;99573.09;;;7.25;100.00
13068;BME280;6600;51.362;6.686;2022-09-29T00:53:43;99581.53;;;7.22;100.00
13068;BME280;6600;51.362;6.686;2022-09-29T00:56:12;99587.91;;;7.21;100.00
13068;BME280;6600;51.362;6.686;2022-09-29T00:58:42;99588.50;;;7.23;100.00
13068;BME280;6600;51.362;6.686;2022-09-29T01:01:10;99584.94;;;7.29;100.00
13068;BME280;6600;51.362;6.686;2022-09-29T01:03:39;99590.28;;;7.29;100.00
13068;BME280;6600;51.362;6.686;2022-09-29T01:06:31;99581.25;;;7.30;100.00
13068;BME280;6600;51.362;6.686;2022-09-29T01:09:00;99586.13;;;7.33;100.00
13068;BME280;6600;51.362;6.686;2022-09-29T01:11:26;99586.13;;;7.33;100.00
13068;BME280;6600;51.362;6.686;2022-09-29T01:13:55;99586.13;;;7.33;100.00
13068;BME280;6600;51.362;6.686;2022-09-29T01:16:22;99583.31;;;7.28;100.00
13068;BME280;6600;51.362;6.686;2022-09-29T01:18:48;99580.19;;;7.31;100.00
13068;BME280;6600;51.362;6.686;2022-09-29T01:43:14;99587.16;;;7.14;100.00
13068;BME280;6600;51.362;6.686;2022-09-29T01:45:47;99598.25;;;7.11;100.00
13068;BME280;6600;51.362;6.686;2022-09-29T01:48:23;99589.22;;;7.12;100.00
13068;BME280;6600;51.362;6.686;2022-09-29T01:50:54;99589.66;;;7.09;100.00
13068;BME280;6600;51.362;6.686;2022-09-29T01:53:28;99592.59;;;7.01;100.00
13068;BME280;6600;51.362;6.686;2022-09-29T01:55:59;99591.78;;;7.00;100.00
13068;BME280;6600;51.362;6.686;2022-09-29T01:58:41;99595.50;;;6.99;100.00
13068;BME280;6600;51.362;6.686;2022-09-29T02:01:10;99588.16;;;6.95;100.00
13068;BME280;6600;51.362;6.686;2022-09-29T02:03:55;99594.38;;;6.89;100.00
13068;BME280;6600;51.362;6.686;2022-09-29T02:06:27;99594.38;;;6.89;100.00
13068;BME280;6600;51.362;6.686;2022-09-29T02:08:56;99590.28;;;6.86;100.00
13068;BME280;6600;51.362;6.686;2022-09-29T02:11:22;99585.19;;;6.85;100.00
13068;BME280;6600;51.362;6.686;2022-09-29T02:14:10;99589.91;;;6.83;100.00
13068;BME280;6600;51.362;6.686;2022-09-29T02:16:41;99594.06;;;6.79;100.00
13068;BME280;6600;51.362;6.686;2022-09-29T02:19:24;99590.78;;;6.77;100.00
13068;BME280;6600;51.362;6.686;2022-09-29T02:21:51;99593.44;;;6.77;100.00
13068;BME280;6600;51.362;6.686;2022-09-29T02:24:19;99593.28;;;6.72;100.00
13068;BME280;6600;51.362;6.686;2022-09-29T02:26:45;99600.22;;;6.73;100.00
13068;BME280;6600;51.362;6.686;2022-09-29T02:29:11;99602.31;;;6.71;100.00
13068;BME280;6600;51.362;6.686;2022-09-29T02:31:37;99602.31;;;6.71;100.00
13068;BME280;6600;51.362;6.686;2022-09-29T02:34:05;99604.75;;;6.72;100.00
13068;BME280;6600;51.362;6.686;2022-09-29T02:39:38;99600.59;;;6.76;100.00
13068;BME280;6600;51.362;6.686;2022-09-29T02:45:03;99596.47;;;6.80;100.00
13068;BME280;6600;51.362;6.686;2022-09-29T02:50:34;99595.97;;;6.90;100.00
13068;BME280;6600;51.362;6.686;2022-09-29T02:56:00;99599.84;;;6.94;100.00
13068;BME280;6600;51.362;6.686;2022-09-29T02:58:48;99603.75;;;6.91;100.00
13068;BME280;6600;51.362;6.686;2022-09-29T03:01:15;99592.72;;;6.88;100.00
13068;BME280;6600;51.362;6.686;2022-09-29T03:03:42;99602.38;;;6.89;100.00
13068;BME280;6600;51.362;6.686;2022-09-29T03:06:09;99597.03;;;6.89;100.00
13068;BME280;6600;51.362;6.686;2022-09-29T03:08:34;99600.13;;;6.86;100.00
13068;BME280;6600;51.362;6.686;2022-09-29T03:11:00;99600.94;;;6.86;100.00
13068;BME280;6600;51.362;6.686;2022-09-29T03:13:26;99604.41;;;6.87;100.00
13068;BME280;6600;51.362;6.686;2022-09-29T03:15:51;99597.69;;;6.84;100.00
13068;BME280;6600;51.362;6.686;2022-09-29T03:18:17;99602.19;;;6.84;100.00
13068;BME280;6600;51.362;6.686;2022-09-29T03:20:42;99592.34;;;6.84;100.00
13068;BME280;6600;51.362;6.686;2022-09-29T03:23:07;99605.47;;;6.86;100.00
13068;BME280;6600;51.362;6.686;2022-09-29T03:25:33;99603.22;;;6.83;100.00
13068;BME280;6600;51.362;6.686;2022-09-29T03:27:58;99607.94;;;6.81;100.00
13068;BME280;6600;51.362;6.686;2022-09-29T03:30:23;99603.06;;;6.78;100.00
13068;BME280;6600;51.362;6.686;2022-09-29T03:32:49;99595.28;;;6.76;100.00
13068;BME280;6600;51.362;6.686;2022-09-29T03:35:14;99604.53;;;6.74;100.00
13068;BME280;6600;51.362;6.686;2022-09-29T03:37:39;99603.94;;;6.72;100.00
13068;BME280;6600;51.362;6.686;2022-09-29T03:40:05;99600.91;;;6.68;100.00
13068;BME280;6600;51.362;6.686;2022-09-29T03:42:31;99604.22;;;6.64;100.00
13068;BME280;6600;51.362;6.686;2022-09-29T03:44:57;99595.19;;;6.65;100.00
13068;BME280;6600;51.362;6.686;2022-09-29T03:47:22;99603.19;;;6.65;100.00
13068;BME280;6600;51.362;6.686;2022-09-29T03:49:47;99603.63;;;6.62;100.00
13068;BME280;6600;51.362;6.686;2022-09-29T03:52:13;99600.72;;;6.63;100.00
13068;BME280;6600;51.362;6.686;2022-09-29T03:54:38;99606.88;;;6.64;100.00
13068;BME280;6600;51.362;6.686;2022-09-29T03:57:03;99614.59;;;6.72;100.00
13068;BME280;6600;51.362;6.686;2022-09-29T03:59:29;99602.75;;;6.68;100.00
13068;BME280;6600;51.362;6.686;2022-09-29T04:01:54;99602.75;;;6.68;100.00
13068;BME280;6600;51.362;6.686;2022-09-29T04:04:20;99617.69;;;6.69;100.00
13068;BME280;6600;51.362;6.686;2022-09-29T04:06:45;99619.69;;;6.73;100.00
13068;BME280;6600;51.362;6.686;2022-09-29T04:09:11;99613.34;;;6.74;100.00
13068;BME280;6600;51.362;6.686;2022-09-29T04:11:36;99620.69;;;6.79;100.00
13068;BME280;6600;51.362;6.686;2022-09-29T04:14:02;99625.19;;;6.78;100.00
13068;BME280;6600;51.362;6.686;2022-09-29T04:16:27;99623.16;;;6.74;100.00
13068;BME280;6600;51.362;6.686;2022-09-29T04:18:53;99628.88;;;6.77;100.00
13068;BME280;6600;51.362;6.686;2022-09-29T04:21:18;99633.69;;;6.87;100.00
13068;BME280;6600;51.362;6.686;2022-09-29T04:23:45;99635.06;;;6.96;100.00
13068;BME280;6600;51.362;6.686;2022-09-29T04:26:10;99627.84;;;7.03;100.00
13068;BME280;6600;51.362;6.686;2022-09-29T04:28:36;99631.97;;;6.99;100.00
13068;BME280;6600;51.362;6.686;2022-09-29T04:31:02;99629.91;;;7.01;100.00
13068;BME280;6600;51.362;6.686;2022-09-29T04:33:27;99629.31;;;6.99;100.00
13068;BME280;6600;51.362;6.686;2022-09-29T04:35:54;99641.75;;;7.05;100.00
13068;BME280;6600;51.362;6.686;2022-09-29T04:38:20;99643.97;;;7.08;100.00
13068;BME280;6600;51.362;6.686;2022-09-29T04:40:46;99635.41;;;7.06;100.00
13068;BME280;6600;51.362;6.686;2022-09-29T04:43:12;99636.84;;;7.02;100.00
13068;BME280;6600;51.362;6.686;2022-09-29T04:45:37;99647.94;;;6.99;100.00
13068;BME280;6600;51.362;6.686;2022-09-29T04:48:03;99637.34;;;6.92;100.00
13068;BME280;6600;51.362;6.686;2022-09-29T04:50:28;99636.09;;;6.95;100.00
13068;BME280;6600;51.362;6.686;2022-09-29T04:52:53;99635.94;;;6.90;100.00
13068;BME280;6600;51.362;6.686;2022-09-29T04:55:19;99643.50;;;6.93;100.00
13068;BME280;6600;51.362;6.686;2022-09-29T04:57:44;99645.50;;;6.97;100.00
13068;BME280;6600;51.362;6.686;2022-09-29T05:00:11;99644.69;;;6.97;100.00
13068;BME280;6600;51.362;6.686;2022-09-29T05:02:37;99649.69;;;6.87;100.00
13068;BME280;6600;51.362;6.686;2022-09-29T05:05:03;99646.00;;;6.88;100.00
13068;BME280;6600;51.362;6.686;2022-09-29T05:07:31;99650.28;;;6.89;100.00
13068;BME280;6600;51.362;6.686;2022-09-29T05:09:56;99656.63;;;6.88;100.00
13068;BME280;6600;51.362;6.686;2022-09-29T05:12:21;99650.88;;;6.91;100.00
13068;BME280;6600;51.362;6.686;2022-09-29T05:14:47;99654.56;;;6.90;100.00
13068;BME280;6600;51.362;6.686;2022-09-29T05:17:12;99656.81;;;6.93;100.00
13068;BME280;6600;51.362;6.686;2022-09-29T05:19:38;99657.16;;;6.96;100.00
13068;BME280;6600;51.362;6.686;2022-09-29T05:22:03;99656.16;;;6.97;100.00
13068;BME280;6600;51.362;6.686;2022-09-29T05:24:29;99664.38;;;6.96;100.00
13068;BME280;6600;51.362;6.686;2022-09-29T05:26:54;99666.81;;;6.97;100.00
13068;BME280;6600;51.362;6.686;2022-09-29T05:29:19;99658.59;;;6.99;100.00
13068;BME280;6600;51.362;6.686;2022-09-29T05:31:45;99666.59;;;6.99;100.00
13068;BME280;6600;51.362;6.686;2022-09-29T05:34:10;99671.09;;;6.98;100.00
13068;BME280;6600;51.362;6.686;2022-09-29T05:36:36;99671.16;;;6.92;100.00
13068;BME280;6600;51.362;6.686;2022-09-29T05:39:01;99671.75;;;6.94;100.00
13068;BME280;6600;51.362;6.686;2022-09-29T05:41:27;99680.13;;;6.97;100.00
13068;BME280;6600;51.362;6.686;2022-09-29T05:43:53;99679.09;;;6.98;100.00
13068;BME280;6600;51.362;6.686;2022-09-29T05:46:19;99683.16;;;7.01;100.00
13068;BME280;6600;51.362;6.686;2022-09-29T05:48:45;99681.31;;;7.01;100.00
13068;BME280;6600;51.362;6.686;2022-09-29T05:51:16;99681.91;;;7.03;100.00
13068;BME280;6600;51.362;6.686;2022-09-29T05:53:42;99673.72;;;7.05;100.00
13068;BME280;6600;51.362;6.686;2022-09-29T05:56:09;99680.50;;;7.01;100.00
13068;BME280;6600;51.362;6.686;2022-09-29T05:58:36;99687.91;;;6.99;100.00
13068;BME280;6600;51.362;6.686;2022-09-29T06:01:10;99690.13;;;7.02;100.00
13068;BME280;6600;51.362;6.686;2022-09-29T06:03:36;99686.59;;;7.08;100.00
13068;BME280;6600;51.362;6.686;2022-09-29T06:06:06;99690.88;;;7.09;100.00
13068;BME280;6600;51.362;6.686;2022-09-29T06:08:31;99693.56;;;7.09;100.00
13068;BME280;6600;51.362;6.686;2022-09-29T06:11:04;99695.34;;;7.15;100.00
13068;BME280;6600;51.362;6.686;2022-09-29T06:13:30;99698.59;;;7.17;100.00
13068;BME280;6600;51.362;6.686;2022-09-29T06:15:58;99700.66;;;7.15;100.00
13068;BME280;6600;51.362;6.686;2022-09-29T06:18:23;99706.00;;;7.15;100.00
13068;BME280;6600;51.362;6.686;2022-09-29T06:20:48;99701.88;;;7.19;100.00
13068;BME280;6600;51.362;6.686;2022-09-29T06:23:13;99700.16;;;7.68;100.00
13068;BME280;6600;51.362;6.686;2022-09-29T06:25:39;99696.00;;;8.44;100.00
13068;BME280;6600;51.362;6.686;2022-09-29T06:28:04;99703.25;;;9.08;100.00
13068;BME280;6600;51.362;6.686;2022-09-29T06:30:29;99708.25;;;9.75;100.00
13068;BME280;6600;51.362;6.686;2022-09-29T06:32:55;99699.16;;;9.99;100.00
13068;BME280;6600;51.362;6.686;2022-09-29T06:35:20;99703.13;;;10.36;100.00
13068;BME280;6600;51.362;6.686;2022-09-29T06:38:12;99708.84;;;10.28;100.00
13068;BME280;6600;51.362;6.686;2022-09-29T06:40:37;99716.16;;;9.93;100.00
13068;BME280;6600;51.362;6.686;2022-09-29T06:43:02;99711.28;;;9.67;100.00
13068;BME280;6600;51.362;6.686;2022-09-29T06:45:28;99715.94;;;9.36;100.00
13068;BME280;6600;51.362;6.686;2022-09-29T06:47:59;99722.63;;;9.04;100.00
13068;BME280;6600;51.362;6.686;2022-09-29T06:50:24;99717.03;;;8.94;100.00
13068;BME280;6600;51.362;6.686;2022-09-29T06:52:50;99717.13;;;8.87;100.00
13068;BME280;6600;51.362;6.686;2022-09-29T06:55:15;99723.94;;;8.72;100.00
13068;BME280;6600;51.362;6.686;2022-09-29T06:57:40;99732.44;;;8.69;100.00
13068;BME280;6600;51.362;6.686;2022-09-29T07:00:06;99729.88;;;8.74;100.00
13068;BME280;6600;51.362;6.686;2022-09-29T07:02:32;99726.47;;;8.67;100.00
13068;BME280;6600;51.362;6.686;2022-09-29T07:04:57;99729.75;;;8.69;100.00
13068;BME280;6600;51.362;6.686;2022-09-29T07:07:22;99722.31;;;8.71;100.00
13068;BME280;6600;51.362;6.686;2022-09-29T07:09:48;99727.19;;;8.74;100.00
13068;BME280;6600;51.362;6.686;2022-09-29T07:12:13;99735.22;;;8.74;100.00
13068;BME280;6600;51.362;6.686;2022-09-29T07:14:38;99734.28;;;8.80;100.00
13068;BME280;6600;51.362;6.686;2022-09-29T07:17:04;99736.50;;;8.83;100.00
13068;BME280;6600;51.362;6.686;2022-09-29T07:19:29;99738.03;;;8.90;100.00
13068;BME280;6600;51.362;6.686;2022-09-29T07:21:55;99734.69;;;8.95;100.00
13068;BME280;6600;51.362;6.686;2022-09-29T07:24:20;99737.47;;;9.00;100.00
13068;BME280;6600;51.362;6.686;2022-09-29T07:26:45;99742.75;;;9.06;100.00
13068;BME280;6600;51.362;6.686;2022-09-29T07:29:10;99733.56;;;9.14;100.00
13068;BME280;6600;51.362;6.686;2022-09-29T07:31:37;99742.28;;;9.21;100.00
13068;BME280;6600;51.362;6.686;2022-09-29T07:34:03;99741.63;;;9.26;100.00
13068;BME280;6600;51.362;6.686;2022-09-29T07:36:28;99746.84;;;9.32;100.00
13068;BME280;6600;51.362;6.686;2022-09-29T07:38:53;99742.22;;;9.39;100.00
13068;BME280;6600;51.362;6.686;2022-09-29T07:41:20;99747.09;;;9.42;100.00
13068;BME280;6600;51.362;6.686;2022-09-29T07:43:46;99751.38;;;9.55;100.00
13068;BME280;6600;51.362;6.686;2022-09-29T07:46:12;99746.75;;;9.50;100.00
13068;BME280;6600;51.362;6.686;2022-09-29T07:48:37;99747.47;;;9.57;100.00
13068;BME280;6600;51.362;6.686;2022-09-29T07:51:15;99752.44;;;9.65;100.00
13068;BME280;6600;51.362;6.686;2022-09-29T07:53:41;99750.59;;;9.78;100.00
13068;BME280;6600;51.362;6.686;2022-09-29T07:56:12;99755.81;;;9.84;100.00
13068;BME280;6600;51.362;6.686;2022-09-29T07:58:38;99755.22;;;9.94;100.00
13068;BME280;6600;51.362;6.686;2022-09-29T08:01:05;99763.50;;;9.92;100.00
13068;BME280;6600;51.362;6.686;2022-09-29T08:03:35;99764.53;;;10.03;100.00
13068;BME280;6600;51.362;6.686;2022-09-29T08:06:00;99754.53;;;10.10;100.00
13068;BME280;6600;51.362;6.686;2022-09-29T08:08:25;99767.22;;;10.14;100.00
13068;BME280;6600;51.362;6.686;2022-09-29T08:10:51;99762.69;;;10.15;100.00
13068;BME280;6600;51.362;6.686;2022-09-29T08:13:17;99764.53;;;10.26;100.00
13068;BME280;6600;51.362;6.686;2022-09-29T08:15:42;99771.59;;;10.32;100.00
13068;BME280;6600;51.362;6.686;2022-09-29T08:18:08;99774.81;;;10.46;100.00
13068;BME280;6600;51.362;6.686;2022-09-29T08:20:34;99779.34;;;10.57;100.00
13068;BME280;6600;51.362;6.686;2022-09-29T08:23:00;99776.19;;;10.60;100.00
13068;BME280;6600;51.362;6.686;2022-09-29T08:25:25;99773.13;;;10.68;100.00
13068;BME280;6600;51.362;6.686;2022-09-29T08:27:52;99793.28;;;10.71;100.00
13068;BME280;6600;51.362;6.686;2022-09-29T08:30:17;99782.88;;;10.74;100.00
13068;BME280;6600;51.362;6.686;2022-09-29T08:32:50;99782.78;;;10.97;100.00
13068;BME280;6600;51.362;6.686;2022-09-29T08:35:15;99797.44;;;11.06;100.00
13068;BME280;6600;51.362;6.686;2022-09-29T08:37:41;99798.72;;;11.21;100.00
13068;BME280;6600;51.362;6.686;2022-09-29T08:40:06;99805.25;;;11.25;100.00
13068;BME280;6600;51.362;6.686;2022-09-29T08:45:38;99806.06;;;11.58;100.00
13068;BME280;6600;51.362;6.686;2022-09-29T08:48:19;99804.63;;;11.68;100.00
13068;BME280;6600;51.362;6.686;2022-09-29T08:50:54;99813.91;;;11.77;100.00
13068;BME280;6600;51.362;6.686;2022-09-29T08:53:21;99809.13;;;11.79;100.00
13068;BME280;6600;51.362;6.686;2022-09-29T08:55:54;99818.03;;;12.01;100.00
13068;BME280;6600;51.362;6.686;2022-09-29T08:58:21;99815.00;;;12.14;100.00
13068;BME280;6600;51.362;6.686;2022-09-29T09:01:22;99810.28;;;12.21;100.00
13068;BME280;6600;51.362;6.686;2022-09-29T09:04:09;99819.75;;;12.07;100.00
13068;BME280;6600;51.362;6.686;2022-09-29T09:11:48;99821.13;;;12.48;100.00
13068;BME280;6600;51.362;6.686;2022-09-29T09:22:48;99831.94;;;12.75;100.00
13068;BME280;6600;51.362;6.686;2022-09-29T09:25:26;99833.72;;;12.91;100.00
13068;BME280;6600;51.362;6.686;2022-09-29T09:28:03;99829.47;;;12.95;100.00
13068;BME280;6600;51.362;6.686;2022-09-29T09:30:35;99830.13;;;13.07;100.00
13068;BME280;6600;51.362;6.686;2022-09-29T09:33:06;99831.88;;;13.18;100.00
13068;BME280;6600;51.362;6.686;2022-09-29T09:35:46;99829.56;;;13.27;100.00
13068;BME280;6600;51.362;6.686;2022-09-29T09:38:20;99828.78;;;13.31;100.00
13068;BME280;6600;51.362;6.686;2022-09-29T09:40:50;99823.78;;;13.40;100.00
13068;BME280;6600;51.362;6.686;2022-09-29T09:43:23;99826.34;;;13.56;100.00
13068;BME280;6600;51.362;6.686;2022-09-29T09:45:59;99832.38;;;13.69;100.00
13068;BME280;6600;51.362;6.686;2022-09-29T09:48:30;99831.28;;;13.70;100.00
13068;BME280;6600;51.362;6.686;2022-09-29T09:51:00;99832.66;;;13.72;100.00
13068;BME280;6600;51.362;6.686;2022-09-29T09:53:33;99830.31;;;13.81;100.00
13068;BME280;6600;51.362;6.686;2022-09-29T10:01:21;99837.31;;;13.82;100.00
13068;BME280;6600;51.362;6.686;2022-09-29T10:03:47;99828.75;;;13.90;100.00
13068;BME280;6600;51.362;6.686;2022-09-29T10:06:12;99835.66;;;14.17;100.00
13068;BME280;6600;51.362;6.686;2022-09-29T10:08:39;99833.59;;;14.30;100.00
13068;BME280;6600;51.362;6.686;2022-09-29T10:11:28;99842.06;;;14.48;100.00
13068;BME280;6600;51.362;6.686;2022-09-29T10:14:03;99832.44;;;14.62;100.00
13068;BME280;6600;51.362;6.686;2022-09-29T10:17:01;99837.31;;;14.76;100.00
13068;BME280;6600;51.362;6.686;2022-09-29T10:19:54;99840.50;;;14.62;99.27
13068;BME280;6600;51.362;6.686;2022-09-29T10:22:20;99842.22;;;14.84;100.00
13068;BME280;6600;51.362;6.686;2022-09-29T10:24:46;99836.31;;;14.92;100.00
13068;BME280;6600;51.362;6.686;2022-09-29T10:27:18;99837.69;;;14.89;100.00
13068;BME280;6600;51.362;6.686;2022-09-29T10:29:46;99837.16;;;15.07;100.00
13068;BME280;6600;51.362;6.686;2022-09-29T10:32:30;99839.59;;;15.14;95.41
13068;BME280;6600;51.362;6.686;2022-09-29T10:35:14;99843.16;;;15.30;96.37
13068;BME280;6600;51.362;6.686;2022-09-29T10:37:42;99847.66;;;14.89;93.47
13068;BME280;6600;51.362;6.686;2022-09-29T10:42:38;99842.88;;;15.16;94.14
13068;BME280;6600;51.362;6.686;2022-09-29T10:47:28;99843.41;;;15.13;92.53
13068;BME280;6600;51.362;6.686;2022-09-29T10:50:30;99844.91;;;14.84;89.98
13068;BME280;6600;51.362;6.686;2022-09-29T10:52:57;99850.91;;;15.01;92.61
13068;BME280;6600;51.362;6.686;2022-09-29T10:55:28;99850.16;;;15.26;92.34
13068;BME280;6600;51.362;6.686;2022-09-29T10:57:56;99845.91;;;15.55;90.40
13068;BME280;6600;51.362;6.686;2022-09-29T11:02:51;99848.31;;;15.36;89.93
13068;BME280;6600;51.362;6.686;2022-09-29T11:05:20;99854.25;;;15.33;91.28
13068;BME280;6600;51.362;6.686;2022-09-29T11:07:51;99854.44;;;15.06;90.57
13068;BME280;6600;51.362;6.686;2022-09-29T11:10:36;99857.34;;;14.85;90.47
13068;BME280;6600;51.362;6.686;2022-09-29T11:15:43;99850.44;;;15.24;87.34
13068;BME280;6600;51.362;6.686;2022-09-29T11:18:21;99860.16;;;15.20;86.55
13068;BME280;6600;51.362;6.686;2022-09-29T11:20:54;99855.81;;;15.09;84.43
13068;BME280;6600;51.362;6.686;2022-09-29T11:23:30;99857.44;;;15.10;85.97
13068;BME280;6600;51.362;6.686;2022-09-29T11:26:08;99860.19;;;15.30;81.80
13068;BME280;6600;51.362;6.686;2022-09-29T11:42:09;99861.88;;;15.82;81.12
13068;BME280;6600;51.362;6.686;2022-09-29T11:44:57;99865.38;;;15.57;79.88
13068;BME280;6600;51.362;6.686;2022-09-29T11:50:15;99867.16;;;15.21;79.96
13068;BME280;6600;51.362;6.686;2022-09-29T11:58:31;99873.63;;;15.15;82.73
13068;BME280;6600;51.362;6.686;2022-09-29T12:01:34;99878.00;;;15.41;83.74
13068;BME280;6600;51.362;6.686;2022-09-29T12:07:10;99866.03;;;15.07;82.83
13068;BME280;6600;51.362;6.686;2022-09-29T12:12:09;99872.47;;;14.91;84.14
13068;BME280;6600;51.362;6.686;2022-09-29T12:17:22;99869.94;;;14.69;86.59
13068;BME280;6600;51.362;6.686;2022-09-29T12:19:57;99873.44;;;14.64;86.57
13068;BME280;6600;51.362;6.686;2022-09-29T12:22:24;99881.00;;;14.68;84.97
13068;BME280;6600;51.362;6.686;2022-09-29T12:24:53;99861.38;;;14.87;85.13
13068;BME280;6600;51.362;6.686;2022-09-29T12:27:31;99862.78;;;14.95;85.04
13068;BME280;6600;51.362;6.686;2022-09-29T12:35:38;99865.25;;;15.06;81.66
13068;BME280;6600;51.362;6.686;2022-09-29T12:38:14;99861.19;;;15.09;82.92
13068;BME280;6600;51.362;6.686;2022-09-29T12:41:10;99869.06;;;15.26;81.56
13068;BME280;6600;51.362;6.686;2022-09-29T12:43:50;99865.63;;;15.50;81.27
13068;BME280;6600;51.362;6.686;2022-09-29T12:49:21;99872.94;;;15.65;80.51
13068;BME280;6600;51.362;6.686;2022-09-29T12:51:51;99869.97;;;15.87;80.31
13068;BME280;6600;51.362;6.686;2022-09-29T12:54:24;99869.41;;;15.70;79.87
13068;BME280;6600;51.362;6.686;2022-09-29T12:57:05;99868.81;;;15.37;80.52
13068;BME280;6600;51.362;6.686;2022-09-29T12:59:40;99865.03;;;15.33;81.19
13068;BME280;6600;51.362;6.686;2022-09-29T13:02:38;99872.06;;;15.39;82.87
13068;BME280;6600;51.362;6.686;2022-09-29T13:13:25;99875.28;;;15.26;79.41
13068;BME280;6600;51.362;6.686;2022-09-29T13:25:14;99878.97;;;15.00;81.57
13068;BME280;6600;51.362;6.686;2022-09-29T13:27:42;99886.44;;;14.83;79.57
13068;BME280;6600;51.362;6.686;2022-09-29T13:30:26;99878.84;;;14.70;80.68
13068;BME280;6600;51.362;6.686;2022-09-29T13:35:25;99879.84;;;14.53;81.11
13068;BME280;6600;51.362;6.686;2022-09-29T13:38:06;99889.72;;;14.38;80.32
13068;BME280;6600;51.362;6.686;2022-09-29T13:40:33;99880.25;;;14.35;81.08
13068;BME280;6600;51.362;6.686;2022-09-29T13:43:00;99883.72;;;14.31;82.66
13068;BME280;6600;51.362;6.686;2022-09-29T13:48:00;99886.16;;;14.32;83.44
13068;BME280;6600;51.362;6.686;2022-09-29T13:58:23;99891.25;;;14.29;83.32
13068;BME280;6600;51.362;6.686;2022-09-29T14:00:49;99897.41;;;14.24;83.97
13068;BME280;6600;51.362;6.686;2022-09-29T14:06:18;99895.22;;;14.21;80.50
13068;BME280;6600;51.362;6.686;2022-09-29T14:08:54;99896.34;;;14.25;81.34
13068;BME280;6600;51.362;6.686;2022-09-29T14:11:33;99895.53;;;14.25;81.01
13068;BME280;6600;51.362;6.686;2022-09-29T14:14:05;99897.41;;;14.24;80.71
13068;BME280;6600;51.362;6.686;2022-09-29T14:21:58;99900.03;;;14.14;85.63
13068;BME280;6600;51.362;6.686;2022-09-29T14:27:25;99900.69;;;14.31;85.84
13068;BME280;6600;51.362;6.686;2022-09-29T14:30:00;99906.25;;;14.51;87.47
13068;BME280;6600;51.362;6.686;2022-09-29T14:32:54;99911.75;;;14.72;86.33
13068;BME280;6600;51.362;6.686;2022-09-29T14:37:58;99917.41;;;14.70;81.88
13068;BME280;6600;51.362;6.686;2022-09-29T14:40:25;99917.69;;;14.74;82.93
13068;BME280;6600;51.362;6.686;2022-09-29T14:43:04;99913.41;;;14.78;83.37
13068;BME280;6600;51.362;6.686;2022-09-29T14:45:37;99920.38;;;14.74;79.12
13068;BME280;6600;51.362;6.686;2022-09-29T14:48:33;99920.97;;;14.81;78.95
13068;BME280;6600;51.362;6.686;2022-09-29T14:51:30;99922.25;;;14.68;78.70
13068;BME280;6600;51.362;6.686;2022-09-29T14:54:31;99922.94;;;14.48;78.89
13068;BME280;6600;51.362;6.686;2022-09-29T15:02:25;99925.66;;;14.16;80.00
13068;BME280;6600;51.362;6.686;2022-09-29T15:04:53;99931.28;;;14.10;81.37
13068;BME280;6600;51.362;6.686;2022-09-29T15:07:24;99923.66;;;14.02;82.10
13068;BME280;6600;51.362;6.686;2022-09-29T15:09:55;99925.75;;;13.95;82.38
13068;BME280;6600;51.362;6.686;2022-09-29T15:12:25;99933.53;;;13.91;82.28
13068;BME280;6600;51.362;6.686;2022-09-29T15:14:51;99933.22;;;13.88;81.73
13068;BME280;6600;51.362;6.686;2022-09-29T15:20:14;99940.16;;;13.79;82.20
13068;BME280;6600;51.362;6.686;2022-09-29T15:25:43;99944.34;;;13.70;82.65
13068;BME280;6600;51.362;6.686;2022-09-29T15:30:55;99937.81;;;13.60;84.41
13068;BME280;6600;51.362;6.686;2022-09-29T15:33:29;99939.91;;;13.53;85.73
13068;BME280;6600;51.362;6.686;2022-09-29T15:36:00;99939.81;;;13.48;87.18
13068;BME280;6600;51.362;6.686;2022-09-29T15:38:31;99937.09;;;13.43;88.54
13068;BME280;6600;51.362;6.686;2022-09-29T15:41:03;99933.34;;;13.44;88.03
13068;BME280;6600;51.362;6.686;2022-09-29T15:43:50;99937.13;;;13.48;87.00
13068;BME280;6600;51.362;6.686;2022-09-29T15:46:20;99938.03;;;13.54;86.86
13068;BME280;6600;51.362;6.686;2022-09-29T15:51:38;99944.84;;;13.61;85.00
13068;BME280;6600;51.362;6.686;2022-09-29T15:54:04;99948.00;;;13.58;84.71
13068;BME280;6600;51.362;6.686;2022-09-29T15:56:33;99953.34;;;13.53;85.30
13068;BME280;6600;51.362;6.686;2022-09-29T15:59:19;99952.72;;;13.46;86.13
13068;BME280;6600;51.362;6.686;2022-09-29T16:01:44;99960.72;;;13.41;86.92
13068;BME280;6600;51.362;6.686;2022-09-29T16:04:10;99954.72;;;13.34;87.92
13068;BME280;6600;51.362;6.686;2022-09-29T16:06:35;99951.00;;;13.35;88.60
13068;BME280;6600;51.362;6.686;2022-09-29T16:09:04;99965.50;;;13.34;88.87
13068;BME280;6600;51.362;6.686;2022-09-29T16:11:33;99973.03;;;13.32;88.58
13068;BME280;6600;51.362;6.686;2022-09-29T16:14:18;99973.03;;;13.32;88.53
13068;BME280;6600;51.362;6.686;2022-09-29T16:16:46;99975.97;;;13.31;85.52